Weather at Baltimore/Washington International Thurgood Marshall Airport

Public forecast

Using degrees Fahrenheit for public forecast. Weather courtesy of forecast.io.

Current aviation weather report (METAR) for Baltimore/Washington International Thurgood Marshall Airport

Retrieved 2020/10/23 22:54 UTC (25 minutes ago):

KBWI 232254Z 15004KT 10SM FEW060 SCT150 BKN250 20/16 A3005 RMK AO2 SLP175 T02000161

Aviation forecast (TAF) for Baltimore/Washington International Thurgood Marshall Airport

Retrieved 2020/10/23 18:24 UTC (5 hours ago):

TAF KBWI 231722Z 2318/2424 13008KT P6SM SCT050 FM240600 19004KT P6SM BKN006 FM240900 19004KT P6SM OVC003 FM241400 29006KT P6SM BKN020 FM241700 31007KT P6SM OVC050 FM242300 34009KT P6SM BKN070